Time;durP1;ratioP1;P1;durP2;ratioP2;P2;SDS_P1;SDS_P2;PMS_P1;PMS_P2;Temp;Humidity;BMP_temperature;BMP_pressure;BME280_temperature;BME280_humidity;BME280_pressure;Samples;Min_cycle;Max_cycle;Signal;HPM_P1;HPM_P2
2022/05/07 00:00:30;;;;;;;8.90;3.43;;;;;;;9.26;76.39;101210.08;3487960;83;98483;-82
2022/05/07 00:05:32;;;;;;;7.83;3.40;;;;;;;9.18;76.15;101206.91;3535313;82;98442;-81
2022/05/07 00:10:33;;;;;;;8.10;3.75;;;;;;;9.13;76.27;101210.46;3517301;83;98479;-82
2022/05/07 00:15:34;;;;;;;7.53;3.30;;;;;;;9.08;76.50;101215.64;3509127;83;97507;-81
2022/05/07 00:20:35;;;;;;;7.97;3.97;;;;;;;8.99;76.49;101204.58;3511584;83;98482;-82
2022/05/07 00:25:35;;;;;;;7.30;3.53;;;;;;;8.92;76.57;101200.22;3529214;83;98844;-80
2022/05/07 00:30:37;;;;;;;9.80;4.63;;;;;;;8.85;76.46;101207.69;3457089;83;98878;-81
2022/05/07 00:35:38;;;;;;;12.47;5.43;;;;;;;8.80;76.57;101211.23;3530108;82;98489;-81
2022/05/07 00:40:39;;;;;;;13.30;6.23;;;;;;;8.76;77.05;101213.06;3515921;82;99115;-81
2022/05/07 00:45:40;;;;;;;14.97;6.57;;;;;;;8.71;76.89;101214.67;3529461;83;98741;-81
2022/05/07 00:56:05;;;;;;;12.93;5.90;;;;;;;8.58;77.80;101197.45;3511975;83;97902;-81
2022/05/07 01:01:06;;;;;;;10.67;4.83;;;;;;;8.53;77.69;101196.30;3510037;83;98601;-81
2022/05/07 01:06:09;;;;;;;10.47;5.63;;;;;;;8.50;77.07;101192.87;3517449;82;98932;-80
2022/05/07 01:11:10;;;;;;;11.95;5.58;;;;;;;8.49;77.70;101184.97;3518647;83;98661;-81
2022/05/07 01:16:12;;;;;;;9.87;4.43;;;;;;;8.49;77.30;101180.30;3517176;83;98658;-80
2022/05/07 01:21:16;;;;;;;11.60;5.60;;;;;;;8.50;77.20;101179.15;3498767;83;98287;-81
2022/05/07 01:26:20;;;;;;;11.20;5.03;;;;;;;8.52;77.67;101174.14;3556680;83;99091;-81
2022/05/07 01:31:20;;;;;;;10.53;4.97;;;;;;;8.54;77.54;101174.58;3512291;83;99110;-81
2022/05/07 01:36:22;;;;;;;10.77;4.87;;;;;;;8.56;77.70;101168.75;3537358;81;99006;-81
2022/05/07 01:41:22;;;;;;;12.45;5.60;;;;;;;8.56;78.21;101172.87;3556491;82;98370;-81
2022/05/07 01:51:43;;;;;;;11.07;5.30;;;;;;;8.49;78.86;101174.00;3488246;83;98788;-81
2022/05/07 01:56:44;;;;;;;10.50;5.20;;;;;;;8.44;78.96;101171.48;3538250;83;98619;-81
2022/05/07 02:01:45;;;;;;;11.13;4.60;;;;;;;8.38;79.67;101164.08;3526633;83;98705;-81
2022/05/07 02:06:45;;;;;;;10.40;5.30;;;;;;;8.33;79.10;101158.02;3512860;83;98985;-81
2022/05/07 02:11:46;;;;;;;9.00;4.43;;;;;;;8.30;79.72;101164.98;3498876;84;98669;-81
2022/05/07 02:16:47;;;;;;;13.03;5.47;;;;;;;8.24;79.83;101164.21;3510108;83;34874;-81
2022/05/07 02:21:48;;;;;;;10.83;5.37;;;;;;;8.20;79.88;101159.17;3501937;83;98975;-81
2022/05/07 02:26:49;;;;;;;10.47;5.13;;;;;;;8.13;80.19;101158.33;3510208;84;98840;-81
2022/05/07 02:32:06;;;;;;;9.27;4.43;;;;;;;8.09;79.42;101158.00;3503922;84;98762;-81
2022/05/07 02:37:07;;;;;;;12.98;5.62;;;;;;;8.06;79.37;101159.48;3509588;84;98546;-81
2022/05/07 02:47:29;;;;;;;11.18;5.50;;;;;;;7.93;80.74;101157.89;3488874;84;99142;-81
2022/05/07 02:52:34;;;;;;;11.05;5.67;;;;;;;7.86;80.88;101154.11;3525453;82;98627;-80
2022/05/07 02:57:35;;;;;;;11.10;5.70;;;;;;;7.83;80.47;101157.52;3479681;84;98922;-81
2022/05/07 03:02:36;;;;;;;8.80;4.63;;;;;;;7.77;81.10;101157.52;3505500;83;98812;-81
2022/05/07 03:07:37;;;;;;;10.30;5.70;;;;;;;7.71;80.93;101154.77;3432385;84;98528;-81
2022/05/07 03:12:38;;;;;;;13.40;6.07;;;;;;;7.68;80.80;101152.14;3497906;84;98746;-81
2022/05/07 03:17:39;;;;;;;10.80;5.13;;;;;;;7.62;81.02;101153.50;3491531;83;98690;-81
2022/05/07 03:22:40;;;;;;;11.33;5.43;;;;;;;7.57;81.20;101159.19;3518136;83;98796;-81
2022/05/07 03:27:41;;;;;;;9.57;4.87;;;;;;;7.52;81.01;101157.25;3541200;82;98548;-81
2022/05/07 03:32:42;;;;;;;11.07;6.30;;;;;;;7.47;81.33;101156.88;3534259;82;98770;-81
2022/05/07 03:37:42;;;;;;;14.97;5.97;;;;;;;7.44;81.84;101161.68;3515211;82;99047;-81
2022/05/07 03:42:45;;;;;;;14.70;5.67;;;;;;;7.42;81.81;101159.05;3525752;82;98712;-81
2022/05/07 03:47:46;;;;;;;12.50;5.50;;;;;;;7.39;82.63;101161.08;3551132;83;98775;-81
2022/05/07 03:58:06;;;;;;;11.65;5.87;;;;;;;7.36;82.94;101163.92;3551241;83;98482;-81
2022/05/07 04:03:07;;;;;;;11.17;5.80;;;;;;;7.36;83.03;101176.24;3532664;83;98874;-81
2022/05/07 04:08:08;;;;;;;11.13;5.30;;;;;;;7.38;82.59;101175.91;3539004;82;98750;-81
2022/05/07 04:13:15;;;;;;;11.77;5.73;;;;;;;7.38;82.59;101175.91;3488066;82;98710;-81
2022/05/07 04:18:16;;;;;;;10.68;5.72;;;;;;;7.40;82.31;101177.73;3503326;83;98972;-81
2022/05/07 04:23:17;;;;;;;14.43;8.23;;;;;;;7.44;82.46;101184.96;3535783;82;98891;-81
2022/05/07 04:28:18;;;;;;;22.67;10.50;;;;;;;7.50;85.08;101184.16;3509647;83;98364;-81
2022/05/07 04:33:19;;;;;;;19.13;10.73;;;;;;;7.56;85.25;101180.88;3468704;83;98853;-81
2022/05/07 04:38:20;;;;;;;23.03;11.87;;;;;;;7.73;87.38;101187.53;3531465;83;98818;-82
2022/05/07 04:43:21;;;;;;;22.07;11.57;;;;;;;7.96;88.60;101187.34;3530659;83;98905;-82
2022/05/07 04:48:22;;;;;;;26.33;12.20;;;;;;;8.15;88.90;101182.12;3527071;83;98845;-82
2022/05/07 04:53:23;;;;;;;22.57;10.73;;;;;;;8.39;89.69;101179.39;3509858;83;98933;-82
2022/05/07 04:58:24;;;;;;;20.30;10.57;;;;;;;8.65;89.22;101177.08;3517685;83;98950;-81
2022/05/07 05:03:24;;;;;;;18.65;10.15;;;;;;;8.85;89.90;101187.67;3535871;82;99058;-82
2022/05/07 05:08:26;;;;;;;18.03;9.17;;;;;;;9.18;88.73;101190.44;3499702;82;99329;-81
2022/05/07 05:13:27;;;;;;;20.95;10.20;;;;;;;9.42;88.36;101201.88;3541408;82;98660;-81
2022/05/07 05:18:28;;;;;;;16.83;9.17;;;;;;;9.68;87.82;101194.77;3545143;82;98670;-81
2022/05/07 05:23:30;;;;;;;18.82;9.15;;;;;;;9.99;87.64;101205.00;3555812;82;99053;-81
2022/05/07 05:28:32;;;;;;;18.13;8.83;;;;;;;10.42;87.38;101202.19;3545539;83;25948;-81
2022/05/07 05:33:33;;;;;;;17.55;8.65;;;;;;;11.02;87.34;101209.86;3536187;82;98905;-82
2022/05/07 05:38:34;;;;;;;15.50;7.97;;;;;;;11.73;85.33;101197.15;3512819;83;99395;-82
2022/05/07 05:43:35;;;;;;;13.18;7.28;;;;;;;12.51;82.93;101185.47;3545033;82;99059;-82
2022/05/07 05:48:36;;;;;;;11.70;5.80;;;;;;;13.34;81.21;101190.58;3498228;83;99490;-82
2022/05/07 05:53:37;;;;;;;13.63;5.90;;;;;;;14.21;78.99;101192.91;3541729;82;98964;-82
2022/05/07 05:58:38;;;;;;;12.07;4.75;;;;;;;15.03;76.44;101193.08;3552594;82;31167;-82
2022/05/07 06:03:39;;;;;;;8.53;4.28;;;;;;;15.82;73.78;101194.39;3537920;82;99032;-83
2022/05/07 06:08:42;;;;;;;10.48;4.42;;;;;;;16.50;71.38;101193.46;3548019;81;99209;-85
2022/05/07 06:13:43;;;;;;;8.53;3.92;;;;;;;17.16;69.44;101194.52;3546108;82;99351;-87
2022/05/07 06:18:44;;;;;;;11.22;4.75;;;;;;;17.77;66.66;101193.86;3542919;83;99556;-85
2022/05/07 06:23:45;;;;;;;11.70;4.28;;;;;;;18.33;65.95;101196.26;3527176;83;99573;-88
2022/05/07 06:28:46;;;;;;;12.73;5.53;;;;;;;18.85;64.06;101199.17;3555630;83;33941;-88
2022/05/07 06:33:47;;;;;;;12.95;5.53;;;;;;;19.14;61.21;101201.83;3545157;83;99731;-86
2022/05/07 06:38:48;;;;;;;10.88;5.12;;;;;;;19.31;60.99;101195.27;3555633;83;99306;-86
2022/05/07 06:43:49;;;;;;;8.88;4.92;;;;;;;19.53;60.11;101195.19;3545557;82;99413;-85
2022/05/07 06:48:50;;;;;;;9.45;4.62;;;;;;;19.47;58.43;101199.06;3552969;82;99339;-85
2022/05/07 06:53:51;;;;;;;8.88;4.50;;;;;;;19.35;57.24;101197.42;3554116;83;99533;-85
2022/05/07 06:58:51;;;;;;;9.33;4.12;;;;;;;19.10;56.57;101201.07;3555455;83;32976;-88
2022/05/07 07:03:52;;;;;;;12.33;4.87;;;;;;;19.00;56.35;101203.37;3516190;83;99130;-87
2022/05/07 07:08:53;;;;;;;18.30;5.35;;;;;;;18.88;56.33;101202.51;3555532;81;99223;-85
2022/05/07 07:13:55;;;;;;;10.75;4.35;;;;;;;18.76;56.60;101202.45;3483644;83;98970;-86
2022/05/07 07:18:56;;;;;;;9.60;4.90;;;;;;;18.68;56.06;101198.12;3494718;83;99465;-86
2022/05/07 07:24:01;;;;;;;15.68;5.45;;;;;;;18.48;56.03;101200.52;3450335;85;99215;-87
2022/05/07 07:28:59;;;;;;;8.85;4.12;;;;;;;18.37;56.11;101202.61;3399247;86;32447;-85
2022/05/07 07:34:02;;;;;;;8.80;4.33;;;;;;;18.56;56.80;101209.80;3418533;84;98924;-87
2022/05/07 07:39:07;;;;;;;10.90;3.90;;;;;;;18.71;56.87;101200.70;3476739;84;99254;-86
2022/05/07 07:44:06;;;;;;;7.80;4.37;;;;;;;18.82;55.78;101199.39;3432298;85;99410;-86
2022/05/07 07:49:07;;;;;;;10.32;5.12;;;;;;;18.90;55.61;101202.87;3487490;84;99266;-89
2022/05/07 07:54:07;;;;;;;7.40;3.65;;;;;;;18.90;54.97;101205.66;3426452;85;99444;-91
2022/05/07 07:59:09;;;;;;;9.68;4.17;;;;;;;18.98;54.77;101207.19;3430781;85;32401;-87
2022/05/07 08:04:10;;;;;;;9.13;3.83;;;;;;;19.13;53.93;101203.05;3431387;85;99099;-87
2022/05/07 08:14:30;;;;;;;7.72;3.72;;;;;;;19.70;53.54;101200.55;3491180;83;98771;-87
2022/05/07 08:19:32;;;;;;;7.55;3.30;;;;;;;20.35;53.46;101210.36;3556510;82;99279;-86
2022/05/07 08:24:33;;;;;;;8.08;3.80;;;;;;;21.12;53.31;101193.59;3509284;83;99373;-86
2022/05/07 08:29:34;;;;;;;9.48;3.85;;;;;;;22.02;51.63;101197.06;3504608;83;99272;-89
2022/05/07 08:34:35;;;;;;;5.58;2.90;;;;;;;22.82;50.77;101191.42;3500440;83;98383;-84
2022/05/07 08:39:36;;;;;;;7.60;3.00;;;;;;;23.62;48.38;101197.58;3530137;82;98344;-84
2022/05/07 08:44:37;;;;;;;8.28;3.02;;;;;;;24.27;46.14;101191.72;3554394;82;98890;-85
2022/05/07 08:49:38;;;;;;;5.78;2.87;;;;;;;24.79;45.61;101189.14;3502114;83;97990;-85
2022/05/07 08:54:39;;;;;;;4.78;2.12;;;;;;;25.57;43.92;101181.46;3484976;83;99360;-86
2022/05/07 08:59:40;;;;;;;5.35;2.60;;;;;;;26.16;42.47;101188.95;3543903;82;98973;-85
2022/05/07 09:04:41;;;;;;;5.10;2.83;;;;;;;26.22;40.16;101188.50;3549378;82;98830;-85
2022/05/07 09:09:49;;;;;;;7.28;3.95;;;;;;;26.84;40.76;101189.13;3499013;83;98706;-85
2022/05/07 09:14:50;;;;;;;8.93;3.10;;;;;;;27.16;38.38;101191.32;3520307;83;98776;-84
2022/05/07 09:19:51;;;;;;;7.42;3.67;;;;;;;27.45;38.25;101188.17;3492564;84;99156;-84
2022/05/07 09:24:55;;;;;;;6.45;3.10;;;;;;;27.69;38.67;101186.86;3493987;84;99227;-85
2022/05/07 09:30:02;;;;;;;7.45;2.90;;;;;;;27.88;37.45;101183.52;3505901;83;99315;-84
2022/05/07 09:40:39;;;;;;;5.22;3.17;;;;;;;28.67;37.33;101179.19;3350806;88;98924;-87
2022/05/07 09:45:41;;;;;;;5.00;2.67;;;;;;;28.65;35.39;101181.70;3473493;83;98991;-87
2022/05/07 10:01:13;;;;;;;11.83;4.72;;;;;;;28.64;34.79;101158.27;3415563;84;99744;-87
2022/05/07 10:06:32;;;;;;;6.85;3.62;;;;;;;28.26;35.32;101158.80;3473814;83;98983;-85
2022/05/07 10:11:34;;;;;;;6.60;3.30;;;;;;;27.95;33.77;101152.05;3543427;82;99028;-84
2022/05/07 10:16:35;;;;;;;7.03;3.08;;;;;;;27.40;34.32;101148.46;3547662;82;98765;-84
2022/05/07 10:21:36;;;;;;;8.75;3.50;;;;;;;27.25;33.46;101134.82;3479672;83;98951;-87
2022/05/07 10:26:40;;;;;;;6.90;2.42;;;;;;;27.20;33.21;101139.70;3468450;83;98784;-85
2022/05/07 10:31:45;;;;;;;23.75;4.50;;;;;;;27.54;34.57;101122.33;3548281;82;99122;-86
2022/05/07 10:36:46;;;;;;;8.13;3.33;;;;;;;28.02;33.59;101136.16;3507553;82;99372;-86
2022/05/07 10:41:47;;;;;;;7.53;2.72;;;;;;;27.98;34.19;101130.49;3495396;83;98980;-84
2022/05/07 10:46:48;;;;;;;7.47;2.58;;;;;;;27.70;33.48;101127.61;3469747;83;26406;-86
2022/05/07 10:51:52;;;;;;;5.60;2.45;;;;;;;27.70;33.92;101130.44;3486204;82;98680;-86
2022/05/07 10:56:57;;;;;;;6.70;2.50;;;;;;;27.72;33.85;101124.45;3533399;82;98856;-85
2022/05/07 11:02:11;;;;;;;7.62;2.30;;;;;;;27.63;33.11;101118.06;3484832;84;98785;-86
2022/05/07 11:07:21;;;;;;;5.63;2.53;;;;;;;27.20;33.28;101112.84;3540943;82;99217;-85
2022/05/07 11:12:22;;;;;;;5.10;2.20;;;;;;;27.12;32.53;101112.97;3521017;82;98829;-85
2022/05/07 11:17:36;;;;;;;6.80;2.87;;;;;;;27.03;33.82;101116.59;3484846;83;26532;-87
2022/05/07 11:22:39;;;;;;;6.42;2.35;;;;;;;27.55;32.87;101106.92;3438404;83;98973;-81
2022/05/07 11:27:40;;;;;;;5.12;2.37;;;;;;;27.56;33.83;101101.41;3451010;84;99544;-82
2022/05/07 11:32:42;;;;;;;8.28;2.40;;;;;;;27.75;32.70;101103.71;3491635;83;99170;-82
2022/05/07 11:37:46;;;;;;;5.05;2.10;;;;;;;27.77;31.64;101091.89;3493741;83;98902;-86
2022/05/07 11:42:49;;;;;;;8.48;2.30;;;;;;;27.75;32.42;101085.33;3487785;83;98830;-83
2022/05/07 11:48:03;;;;;;;7.60;2.50;;;;;;;28.20;32.28;101087.12;3508778;82;98849;-83
2022/05/07 11:53:16;;;;;;;11.47;3.67;;;;;;;28.13;32.54;101080.41;3503265;82;98880;-82
2022/05/07 11:58:23;;;;;;;5.75;2.30;;;;;;;28.15;32.43;101068.76;3494588;82;99325;-83
2022/05/07 12:03:26;;;;;;;4.37;2.20;;;;;;;28.12;32.76;101068.95;3485457;82;99213;-82
2022/05/07 12:08:33;;;;;;;5.62;2.30;;;;;;;28.19;32.35;101060.08;3497373;83;99201;-83
2022/05/07 12:13:35;;;;;;;4.40;2.22;;;;;;;27.89;31.51;101058.41;3487720;83;98935;-83
2022/05/07 12:18:37;;;;;;;6.08;2.22;;;;;;;28.13;32.09;101050.69;3518189;83;99149;-83
2022/05/07 12:34:17;;;;;;;6.22;2.98;;;;;;;27.45;31.32;101045.38;3511842;83;99060;-83
2022/05/07 12:39:18;;;;;;;5.28;2.40;;;;;;;27.30;31.29;101033.83;3436720;85;98832;-84
2022/05/07 12:44:19;;;;;;;6.20;2.40;;;;;;;27.06;31.11;101030.89;3504810;83;98802;-82
2022/05/07 12:49:21;;;;;;;7.30;2.40;;;;;;;26.56;32.21;101017.50;3506810;82;98782;-82
2022/05/07 12:54:22;;;;;;;7.40;2.50;;;;;;;26.55;33.40;101022.99;3498644;82;98766;-81
2022/05/07 12:59:22;;;;;;;7.83;2.50;;;;;;;26.48;32.90;101027.50;3505144;84;26079;-84
2022/05/07 13:04:24;;;;;;;7.70;2.40;;;;;;;26.32;32.50;101032.69;3497792;83;98914;-82
2022/05/07 13:09:25;;;;;;;4.35;1.52;;;;;;;26.12;34.19;101028.12;3448732;83;99224;-82
2022/05/07 13:14:26;;;;;;;4.37;2.35;;;;;;;25.93;35.43;101023.72;3434088;84;99143;-82
2022/05/07 13:19:27;;;;;;;4.00;1.98;;;;;;;25.85;35.21;101019.58;3441854;84;98769;-82
2022/05/07 13:24:29;;;;;;;6.92;2.40;;;;;;;25.47;35.51;101024.19;3499431;84;99189;-82
2022/05/07 13:29:32;;;;;;;7.45;2.72;;;;;;;25.30;35.65;101029.12;3508872;84;25840;-82
2022/05/07 13:34:33;;;;;;;4.65;2.37;;;;;;;25.06;35.96;101023.81;3501379;83;98667;-82
2022/05/07 13:39:34;;;;;;;9.25;2.22;;;;;;;24.94;36.52;101024.05;3507298;84;98640;-82
2022/05/07 13:44:37;;;;;;;7.72;2.83;;;;;;;24.71;37.38;101020.31;3494167;83;98903;-82
2022/05/07 13:49:39;;;;;;;6.80;2.60;;;;;;;24.78;37.98;101028.48;3429468;85;99231;-83
2022/05/07 13:54:40;;;;;;;5.47;2.75;;;;;;;24.72;37.67;101037.98;3485267;84;98898;-82
2022/05/07 13:59:40;;;;;;;5.75;2.70;;;;;;;24.00;37.42;101050.80;3423328;85;26605;-82
2022/05/07 14:04:42;;;;;;;6.62;3.10;;;;;;;23.35;38.50;101052.51;3431019;84;98654;-82
2022/05/07 14:09:47;;;;;;;4.37;1.97;;;;;;;23.20;40.69;101046.35;3435476;85;98726;-82
2022/05/07 14:14:47;;;;;;;5.42;2.30;;;;;;;22.94;39.32;101043.33;3459194;84;99300;-82
2022/05/07 14:19:50;;;;;;;4.47;1.95;;;;;;;22.64;39.56;101026.96;3431889;86;98921;-83
2022/05/07 14:24:51;;;;;;;4.12;2.33;;;;;;;22.26;39.80;101026.00;3418038;84;98806;-82
2022/05/07 14:29:52;;;;;;;3.75;2.00;;;;;;;22.18;41.15;101010.61;3427723;86;26430;-82
2022/05/07 14:34:53;;;;;;;5.45;2.55;;;;;;;22.35;42.04;101013.54;3450512;83;98913;-81
2022/05/07 14:39:54;;;;;;;4.95;2.27;;;;;;;22.46;41.14;101011.26;3435806;86;99092;-82
2022/05/07 14:44:54;;;;;;;5.92;2.80;;;;;;;22.53;41.37;101004.03;3423743;84;99257;-82
2022/05/07 14:49:55;;;;;;;4.20;1.92;;;;;;;22.70;41.99;101004.94;3482809;82;98826;-82
2022/05/07 14:54:56;;;;;;;6.00;2.60;;;;;;;22.80;40.79;100998.83;3470917;84;99283;-82
2022/05/07 14:59:57;;;;;;;6.97;2.63;;;;;;;22.94;40.41;100987.19;3476249;83;26910;-82
2022/05/07 15:04:58;;;;;;;5.42;2.75;;;;;;;23.04;39.40;100991.69;3486885;84;98594;-83
2022/05/07 15:15:19;;;;;;;5.30;2.58;;;;;;;23.12;40.25;100981.80;3518360;82;98885;-83
2022/05/07 15:20:20;;;;;;;5.12;2.40;;;;;;;23.14;40.73;100981.52;3535048;82;98821;-82
2022/05/07 15:25:21;;;;;;;4.05;2.50;;;;;;;23.19;40.08;100970.36;3537641;82;99115;-82
2022/05/07 15:30:25;;;;;;;5.33;2.80;;;;;;;23.15;40.27;100966.88;3514475;83;99098;-82
2022/05/07 15:40:45;;;;;;;5.50;2.70;;;;;;;23.08;39.83;100972.09;3520961;83;106033;-83
2022/05/07 15:45:47;;;;;;;9.65;3.22;;;;;;;22.99;39.57;100969.15;3453526;84;98758;-84
2022/05/07 15:50:48;;;;;;;7.25;3.10;;;;;;;22.91;39.39;100966.41;3476186;82;98853;-84
2022/05/07 15:55:49;;;;;;;6.47;3.00;;;;;;;22.77;38.93;100964.02;3540031;82;98815;-84
2022/05/07 16:00:50;;;;;;;6.37;2.87;;;;;;;22.60;38.44;100962.53;3478292;84;98823;-83
2022/05/07 16:05:51;;;;;;;6.45;2.85;;;;;;;22.35;38.74;100959.63;3490597;84;33988;-82
2022/05/07 16:10:52;;;;;;;6.67;2.80;;;;;;;22.10;38.89;100955.34;3480604;83;99155;-82
2022/05/07 16:15:58;;;;;;;4.70;2.37;;;;;;;21.98;39.30;100954.67;3482442;83;97847;-82
2022/05/07 16:20:56;;;;;;;5.47;2.17;;;;;;;21.83;39.91;100949.88;3474555;82;98807;-83
2022/05/07 16:25:57;;;;;;;6.22;3.17;;;;;;;21.67;40.92;100950.67;3526748;83;97999;-82
2022/05/07 16:30:58;;;;;;;5.10;2.57;;;;;;;21.51;41.06;100953.48;3451135;83;98939;-83
2022/05/07 16:36:00;;;;;;;6.07;2.80;;;;;;;21.39;41.61;100951.98;3532202;82;29403;-83
2022/05/07 16:41:01;;;;;;;6.03;3.47;;;;;;;21.16;42.31;100945.16;3439256;83;98733;-83
2022/05/07 16:46:02;;;;;;;5.50;3.00;;;;;;;21.07;42.76;100949.97;3485391;83;99010;-82
2022/05/07 16:51:03;;;;;;;4.90;2.73;;;;;;;20.94;43.04;100942.69;3519146;82;99248;-82
2022/05/07 16:56:04;;;;;;;7.23;2.77;;;;;;;20.88;43.24;100938.80;3435159;83;99284;-83
2022/05/07 17:01:05;;;;;;;6.08;2.85;;;;;;;20.83;44.34;100940.11;3457428;85;99255;-82
2022/05/07 17:06:06;;;;;;;7.37;2.73;;;;;;;20.72;43.90;100935.97;3470600;83;98843;-82
2022/05/07 17:11:07;;;;;;;5.20;2.80;;;;;;;20.66;44.58;100944.06;3526601;83;98948;-82
2022/05/07 17:16:09;;;;;;;7.13;3.13;;;;;;;20.59;45.08;100944.85;3549643;82;98722;-82
2022/05/07 17:21:11;;;;;;;8.90;3.83;;;;;;;20.44;45.55;100948.53;3511332;83;98833;-82
2022/05/07 17:26:12;;;;;;;7.73;3.30;;;;;;;20.37;45.86;100954.28;3538490;82;99186;-82
2022/05/07 17:31:13;;;;;;;8.80;3.67;;;;;;;20.32;46.47;100961.77;3514816;83;99326;-82
2022/05/07 17:36:14;;;;;;;7.70;3.53;;;;;;;20.35;47.34;100953.94;3509301;83;99222;-82
2022/05/07 17:41:15;;;;;;;9.27;4.00;;;;;;;20.26;47.47;100960.70;3508162;82;99179;-82
2022/05/07 17:46:17;;;;;;;10.53;4.07;;;;;;;20.24;48.59;100970.73;3548323;82;98708;-81
2022/05/07 17:51:18;;;;;;;11.97;6.80;;;;;;;20.15;48.79;100976.09;3482784;83;99340;-81
2022/05/07 17:56:20;;;;;;;12.77;7.73;;;;;;;20.06;49.06;100976.63;3529166;82;98906;-82
2022/05/07 18:01:21;;;;;;;11.83;6.10;;;;;;;19.90;49.19;100977.92;3520172;82;99058;-82
2022/05/07 18:06:23;;;;;;;13.00;7.03;;;;;;;19.84;49.53;100981.65;3516240;83;99285;-82
2022/05/07 18:11:24;;;;;;;13.80;7.27;;;;;;;19.75;49.40;100985.59;3534703;82;98982;-82
2022/05/07 18:16:26;;;;;;;15.40;6.30;;;;;;;19.58;49.74;100987.48;3514488;83;99128;-82
2022/05/07 18:21:27;;;;;;;13.00;6.90;;;;;;;19.49;49.98;101001.19;3504727;83;99107;-81
2022/05/07 18:26:28;;;;;;;9.10;4.67;;;;;;;19.29;50.64;101005.11;3520368;83;99712;-81
2022/05/07 18:31:29;;;;;;;8.97;4.60;;;;;;;19.04;51.34;101011.02;3517623;82;98989;-81
2022/05/07 18:47:09;;;;;;;9.75;4.03;;;;;;;18.40;53.61;101027.56;3520950;82;98882;-83
2022/05/07 18:52:12;;;;;;;7.30;4.03;;;;;;;18.28;54.20;101035.04;3493988;83;98957;-83
2022/05/07 19:02:36;;;;;;;7.78;3.10;;;;;;;18.09;54.77;101037.81;3538499;82;99267;-82
2022/05/07 19:07:37;;;;;;;9.35;3.40;;;;;;;17.97;55.22;101038.33;3546855;82;98777;-84
2022/05/07 19:12:38;;;;;;;9.67;3.27;;;;;;;17.85;55.52;101041.64;3537813;82;99234;-84
2022/05/07 19:17:39;;;;;;;6.93;3.20;;;;;;;17.76;55.99;101048.88;3524456;83;26510;-83
2022/05/07 19:22:40;;;;;;;5.70;3.20;;;;;;;17.65;56.24;101055.91;3541370;82;98762;-83
2022/05/07 19:27:41;;;;;;;11.00;3.20;;;;;;;17.60;56.53;101061.14;3553353;82;98832;-82
2022/05/07 19:32:42;;;;;;;4.60;2.80;;;;;;;17.50;56.91;101064.78;3524458;83;99330;-81
2022/05/07 19:37:44;;;;;;;8.70;3.83;;;;;;;17.38;56.88;101061.06;3551591;82;98901;-82
2022/05/07 19:42:45;;;;;;;6.87;3.80;;;;;;;17.26;57.50;101071.25;3551131;82;98885;-83
2022/05/07 19:47:45;;;;;;;11.37;4.77;;;;;;;17.13;57.77;101074.31;3556769;82;32190;-82
2022/05/07 19:52:46;;;;;;;8.43;3.98;;;;;;;17.01;58.35;101073.39;3532554;82;99307;-83
2022/05/07 19:57:47;;;;;;;6.25;3.50;;;;;;;16.88;58.69;101075.02;3557287;82;99072;-84
2022/05/07 20:02:48;;;;;;;9.60;4.70;;;;;;;16.73;59.25;101072.90;3527122;82;98900;-84
2022/05/07 20:07:50;;;;;;;8.20;3.57;;;;;;;16.60;59.90;101078.71;3563803;82;98858;-83
2022/05/07 20:12:58;;;;;;;8.77;5.30;;;;;;;16.45;60.20;101073.61;3556414;82;98901;-85
2022/05/07 20:18:00;;;;;;;10.38;4.10;;;;;;;16.29;60.79;101073.98;3502693;83;32219;-85
2022/05/07 20:23:01;;;;;;;9.43;4.03;;;;;;;16.08;61.39;101072.62;3547734;82;99317;-86
2022/05/07 20:28:03;;;;;;;8.20;4.33;;;;;;;15.88;61.89;101065.92;3550135;82;98945;-85
2022/05/07 20:33:04;;;;;;;9.08;3.67;;;;;;;15.70;62.83;101076.81;3540967;82;99070;-85
2022/05/07 20:38:06;;;;;;;6.80;4.00;;;;;;;15.54;63.02;101081.34;3479026;83;99292;-85
2022/05/07 20:46:25;;;;;;;9.03;5.60;;;;;;;15.37;63.96;101074.40;3542960;82;99214;-85
2022/05/07 20:48:09;;;;;;;13.20;7.03;;;;;;;15.19;64.69;101079.05;3541757;83;32176;-84
2022/05/07 20:53:10;;;;;;;11.40;6.10;;;;;;;15.06;65.01;101082.81;3542930;82;98964;-85
2022/05/07 20:58:12;;;;;;;15.93;8.00;;;;;;;14.96;64.89;101080.79;3545217;82;98849;-84
2022/05/07 21:03:12;;;;;;;13.33;7.20;;;;;;;14.85;65.17;101088.27;3497264;83;99013;-85
2022/05/07 21:08:15;;;;;;;14.33;8.40;;;;;;;14.81;64.93;101090.22;3499392;83;99104;-84
2022/05/07 21:13:16;;;;;;;19.67;10.73;;;;;;;14.74;65.53;101083.84;3483003;83;99348;-85
2022/05/07 21:18:18;;;;;;;17.07;9.23;;;;;;;14.63;66.78;101091.31;3472920;83;99166;-84
2022/05/07 21:23:19;;;;;;;19.83;10.63;;;;;;;14.58;66.81;101094.45;3467684;83;98690;-85
2022/05/07 21:28:20;;;;;;;20.53;11.40;;;;;;;14.55;67.15;101086.94;3496690;82;99525;-85
2022/05/07 21:33:21;;;;;;;17.33;8.90;;;;;;;14.53;66.86;101098.39;3491368;83;99218;-85
2022/05/07 21:38:22;;;;;;;19.33;10.10;;;;;;;14.53;67.34;101101.16;3492264;83;99616;-85
2022/05/07 21:43:30;;;;;;;17.62;10.18;;;;;;;14.47;68.03;101096.38;3493974;84;99356;-85
2022/05/07 21:48:28;;;;;;;14.63;7.87;;;;;;;14.44;68.73;101092.39;3479564;83;99597;-85
2022/05/07 21:53:29;;;;;;;13.47;7.20;;;;;;;14.40;68.52;101102.65;3535869;82;99156;-85
2022/05/07 21:58:34;;;;;;;10.17;5.57;;;;;;;14.39;68.97;101105.22;3533143;83;98471;-85
2022/05/07 22:03:35;;;;;;;10.95;5.97;;;;;;;14.36;69.46;101109.36;3466318;84;99508;-85
2022/05/07 22:08:36;;;;;;;10.30;5.55;;;;;;;14.31;69.58;101110.52;3490808;84;99075;-83
2022/05/07 22:13:37;;;;;;;11.40;6.20;;;;;;;14.32;70.72;101107.14;3508847;83;98942;-85
2022/05/07 22:18:38;;;;;;;12.16;6.92;;;;;;;14.26;71.02;101106.73;3528269;83;99043;-86
2022/05/07 22:23:39;;;;;;;14.97;7.20;;;;;;;14.21;71.44;101116.78;3514080;83;98963;-86
2022/05/07 22:28:41;;;;;;;17.90;7.83;;;;;;;14.18;71.28;101109.19;3513183;83;98894;-85
2022/05/07 22:33:42;;;;;;;15.30;7.40;;;;;;;14.16;71.48;101115.72;3482933;83;99325;-85
2022/05/07 22:38:44;;;;;;;13.57;6.03;;;;;;;14.13;71.90;101124.81;3510484;82;99010;-85
2022/05/07 22:43:45;;;;;;;15.30;7.22;;;;;;;14.10;71.46;101122.80;3495813;83;99563;-83
2022/05/07 22:48:46;;;;;;;18.97;11.00;;;;;;;14.12;70.90;101130.11;3455850;85;99173;-85
2022/05/07 22:53:49;;;;;;;20.57;12.07;;;;;;;14.12;71.94;101125.19;3502083;83;99046;-84
2022/05/07 22:58:51;;;;;;;19.27;11.43;;;;;;;14.09;71.80;101123.98;3507230;83;99077;-85
2022/05/07 23:03:53;;;;;;;20.43;11.83;;;;;;;14.06;72.07;101125.34;3501339;83;99124;-85
2022/05/07 23:08:54;;;;;;;17.62;11.78;;;;;;;13.99;73.02;101121.91;3506019;84;99182;-84
2022/05/07 23:13:55;;;;;;;20.77;12.80;;;;;;;13.97;72.85;101127.05;3503877;83;99235;-85
2022/05/07 23:18:56;;;;;;;17.53;10.90;;;;;;;13.90;73.36;101124.20;3546894;81;98799;-85
2022/05/07 23:23:59;;;;;;;16.60;10.37;;;;;;;13.88;73.20;101129.33;3553493;83;98853;-85
2022/05/07 23:29:01;;;;;;;15.78;9.45;;;;;;;13.84;74.79;101126.34;3541062;83;99568;-85
2022/05/07 23:34:02;;;;;;;16.52;10.25;;;;;;;13.83;75.04;101130.25;3544705;81;99330;-85
2022/05/07 23:39:03;;;;;;;18.47;10.90;;;;;;;13.84;75.19;101137.41;3528095;83;99656;-85
2022/05/07 23:44:04;;;;;;;19.50;10.13;;;;;;;13.84;75.82;101148.47;3547447;82;99207;-84
2022/05/07 23:49:06;;;;;;;18.37;11.53;;;;;;;13.82;75.85;101148.84;3531137;83;99224;-85
2022/05/07 23:54:07;;;;;;;17.07;10.33;;;;;;;13.82;75.78;101149.42;3531096;83;99194;-86
2022/05/07 23:59:08;;;;;;;15.83;9.77;;;;;;;13.79;76.66;101143.28;3535136;82;99205;-84
